Time;durP1;ratioP1;P1;durP2;ratioP2;P2;SDS_P1;SDS_P2;PMS_P1;PMS_P2;Temp;Humidity;BMP_temperature;BMP_pressure;BME280_temperature;BME280_humidity;BME280_pressure;Samples;Min_cycle;Max_cycle;Signal;HPM_P1;HPM_P2
2023/12/30 00:00:47;;;;;;;4.73;1.47;;;7.90;99.90;;;7.09;100.00;99898.63;5033431;28;20213;-74
2023/12/30 00:03:15;;;;;;;6.60;1.53;;;7.90;99.90;;;7.09;100.00;99894.13;5033102;28;20293;-74
2023/12/30 00:05:44;;;;;;;6.23;1.57;;;8.00;99.90;;;7.09;100.00;99888.81;5033255;28;20210;-74
2023/12/30 00:08:13;;;;;;;5.07;1.70;;;8.00;99.90;;;7.11;100.00;99883.34;5033205;28;20230;-75
2023/12/30 00:10:41;;;;;;;3.10;1.60;;;8.10;99.90;;;7.10;100.00;99879.84;5032941;28;20739;-75
2023/12/30 00:13:09;;;;;;;7.90;1.93;;;8.00;99.90;;;7.10;100.00;99886.97;5033140;28;20226;-75
2023/12/30 00:15:38;;;;;;;2.30;1.40;;;8.00;99.90;;;7.11;100.00;99878.84;5033054;28;20617;-73
2023/12/30 00:18:06;;;;;;;3.53;1.90;;;8.00;99.90;;;7.12;100.00;99885.00;5032842;28;20237;-73
2023/12/30 00:20:35;;;;;;;3.73;1.30;;;8.00;99.90;;;7.13;100.00;99876.00;5032978;28;20692;-74
2023/12/30 00:23:03;;;;;;;4.43;1.70;;;8.00;99.90;;;7.12;100.00;99869.84;5032932;28;20297;-74
2023/12/30 00:25:33;;;;;;;4.23;1.40;;;8.00;99.90;;;7.12;100.00;99863.72;5032737;28;20664;-74
2023/12/30 00:28:02;;;;;;;5.83;1.80;;;8.10;99.90;;;7.10;100.00;99873.69;5033144;28;20258;-74
2023/12/30 00:30:30;;;;;;;3.67;1.63;;;8.00;99.90;;;7.07;100.00;99869.50;5032712;28;20555;-74
2023/12/30 00:32:58;;;;;;;4.37;1.50;;;8.00;99.90;;;7.05;100.00;99857.38;5032945;28;20258;-74
2023/12/30 00:35:27;;;;;;;2.70;1.47;;;7.90;99.90;;;7.05;100.00;99865.34;5033003;28;20207;-75
2023/12/30 00:37:55;;;;;;;2.87;1.37;;;7.90;99.90;;;7.01;100.00;99874.63;5032946;28;20222;-74
2023/12/30 00:40:23;;;;;;;2.43;1.50;;;7.90;99.90;;;6.99;100.00;99884.59;5032911;28;20230;-74
2023/12/30 00:42:55;;;;;;;3.10;1.40;;;8.10;99.90;;;6.96;100.00;99880.41;5033336;28;20637;-74
2023/12/30 00:45:24;;;;;;;4.17;1.30;;;7.80;99.90;;;6.94;100.00;99890.41;5036670;28;20217;-74
2023/12/30 00:47:52;;;;;;;1.80;1.10;;;7.90;99.90;;;6.92;100.00;99886.22;5036548;28;20317;-73
2023/12/30 00:50:20;;;;;;;3.10;1.50;;;7.90;99.90;;;6.90;100.00;99870.41;5036202;28;20250;-75
2023/12/30 00:52:48;;;;;;;3.27;1.20;;;7.80;99.90;;;6.89;100.00;99870.56;5036516;28;20230;-74
2023/12/30 00:55:17;;;;;;;1.90;1.00;;;7.80;99.90;;;6.90;100.00;99872.25;5036431;28;20230;-74
2023/12/30 00:57:45;;;;;;;1.93;1.00;;;7.80;99.90;;;6.87;100.00;99878.72;5036503;28;20223;-74
2023/12/30 01:00:16;;;;;;;1.50;1.13;;;7.80;99.90;;;6.86;100.00;99882.38;5036193;28;20687;-74
2023/12/30 01:02:44;;;;;;;1.30;1.00;;;7.70;99.90;;;6.87;100.00;99893.84;5036594;28;20195;-74
2023/12/30 01:05:12;;;;;;;2.03;0.90;;;7.90;99.90;;;6.86;100.00;99908.13;5036229;28;20209;-74
2023/12/30 01:07:40;;;;;;;1.80;0.90;;;7.80;99.90;;;6.88;100.00;99922.13;5036112;28;20265;-72
2023/12/30 01:10:09;;;;;;;1.50;0.93;;;7.80;99.90;;;6.86;100.00;99918.78;5036113;28;20242;-74
2023/12/30 01:12:37;;;;;;;2.77;1.23;;;7.80;99.90;;;6.87;100.00;99928.44;5036064;28;20237;-74
2023/12/30 01:15:07;;;;;;;1.40;0.83;;;7.80;99.90;;;6.86;100.00;99927.59;5036031;28;20301;-74
2023/12/30 01:17:36;;;;;;;2.30;0.97;;;7.70;99.90;;;6.86;100.00;99929.41;5035783;28;20242;-74
2023/12/30 01:20:07;;;;;;;2.40;1.00;;;7.80;99.90;;;6.86;100.00;99921.44;5036008;28;20203;-73
2023/12/30 01:22:37;;;;;;;1.70;0.93;;;7.70;99.90;;;6.88;100.00;99922.13;5035832;28;20736;-73
2023/12/30 01:25:06;;;;;;;1.17;0.70;;;7.80;99.90;;;6.89;100.00;99923.78;5035898;28;20207;-73
2023/12/30 01:27:35;;;;;;;2.67;1.10;;;7.80;99.90;;;6.86;100.00;99924.09;5035843;28;20210;-74
2023/12/30 01:30:03;;;;;;;2.73;1.10;;;7.80;99.90;;;6.84;100.00;99923.44;5035555;28;20703;-74
2023/12/30 01:32:31;;;;;;;2.17;1.30;;;7.70;99.90;;;6.84;100.00;99926.09;5035717;28;20322;-73
2023/12/30 01:35:01;;;;;;;1.90;1.30;;;7.70;99.90;;;6.80;100.00;99927.38;5035714;28;20217;-74
2023/12/30 01:37:29;;;;;;;2.37;1.23;;;7.70;99.90;;;6.78;100.00;99937.34;5036437;28;20218;-74
2023/12/30 01:39:57;;;;;;;2.37;1.10;;;7.70;99.90;;;6.78;100.00;99948.00;5035653;28;20253;-74
2023/12/30 01:42:25;;;;;;;2.67;1.30;;;7.70;99.90;;;6.78;100.00;99958.66;5035595;28;20238;-73
2023/12/30 01:44:54;;;;;;;2.17;1.10;;;7.80;99.90;;;6.75;100.00;99969.56;5035266;28;20668;-73
2023/12/30 01:47:22;;;;;;;2.37;1.00;;;7.60;99.90;;;6.72;100.00;99967.22;5035340;28;20627;-73
2023/12/30 01:49:50;;;;;;;2.40;1.00;;;7.60;99.90;;;6.68;100.00;99963.22;5034984;28;20635;-74
2023/12/30 01:52:21;;;;;;;1.77;0.90;;;7.60;99.90;;;6.67;100.00;99962.38;5035116;28;20653;-74
2023/12/30 01:54:50;;;;;;;2.73;0.87;;;7.60;99.90;;;6.64;100.00;99952.88;5035070;28;20210;-74
2023/12/30 01:57:19;;;;;;;3.73;1.17;;;7.60;99.90;;;6.61;100.00;99949.69;5035162;28;20210;-73
2023/12/30 01:59:48;;;;;;;2.07;1.00;;;7.60;99.90;;;6.59;100.00;99959.66;5034940;28;20742;-73
2023/12/30 02:02:16;;;;;;;2.90;0.90;;;7.50;99.90;;;6.57;100.00;99967.78;5034905;28;20723;-74
2023/12/30 02:04:46;;;;;;;1.87;0.90;;;7.50;99.90;;;6.56;100.00;99974.09;5034784;28;20214;-73
2023/12/30 02:07:14;;;;;;;2.00;1.30;;;7.50;99.90;;;6.56;100.00;99971.44;5035230;28;20207;-73
2023/12/30 02:09:43;;;;;;;1.60;0.87;;;7.50;99.90;;;6.54;100.00;99973.41;5035141;28;20217;-73
2023/12/30 02:12:12;;;;;;;2.07;0.93;;;7.40;99.90;;;6.54;100.00;99989.34;5035037;28;20237;-74
2023/12/30 02:14:40;;;;;;;2.57;1.33;;;7.60;99.90;;;6.54;100.00;99981.38;5035792;28;20223;-73
2023/12/30 02:17:08;;;;;;;2.27;0.87;;;7.40;99.90;;;6.56;100.00;99987.41;5034865;28;20309;-73
2023/12/30 02:19:36;;;;;;;2.97;1.20;;;7.50;99.90;;;6.54;100.00;100000.00;5034765;28;20223;-74
2023/12/30 02:22:05;;;;;;;3.03;1.20;;;7.50;99.90;;;6.57;100.00;99999.72;5034797;28;20211;-73
2023/12/30 02:24:34;;;;;;;3.77;1.13;;;7.40;99.90;;;6.57;100.00;99999.72;5034585;28;20215;-73
2023/12/30 02:27:02;;;;;;;4.13;1.20;;;7.50;99.90;;;6.56;100.00;100002.50;5034425;28;20670;-73
2023/12/30 02:29:30;;;;;;;3.63;1.30;;;7.50;99.90;;;6.54;100.00;100005.31;5034536;28;20254;-74
2023/12/30 02:31:58;;;;;;;5.17;1.67;;;7.50;99.90;;;6.57;100.00;100007.69;5034627;28;20215;-74
2023/12/30 02:34:27;;;;;;;4.00;1.30;;;7.50;99.90;;;6.54;100.00;100005.31;5034519;28;20317;-74
2023/12/30 02:36:55;;;;;;;3.63;1.00;;;7.50;99.90;;;6.51;100.00;100005.63;5035364;28;20230;-74
2023/12/30 02:39:24;;;;;;;2.73;1.20;;;7.40;99.90;;;6.50;100.00;100008.44;5034436;28;20231;-74
2023/12/30 02:41:53;;;;;;;1.67;1.00;;;7.40;99.90;;;6.49;100.00;100015.59;5034419;28;20306;-74
2023/12/30 02:44:21;;;;;;;4.37;1.20;;;7.40;99.90;;;6.48;100.00;100016.56;5034454;28;20207;-74
2023/12/30 02:46:49;;;;;;;5.80;1.27;;;7.40;99.90;;;6.45;100.00;100027.50;5034463;28;20206;-74
2023/12/30 02:49:18;;;;;;;3.00;1.30;;;7.40;99.90;;;6.46;100.00;100020.38;5034167;28;20313;-73
2023/12/30 02:51:46;;;;;;;6.87;1.47;;;7.40;99.90;;;6.42;100.00;100021.66;5034245;28;20207;-73
2023/12/30 02:54:14;;;;;;;4.03;1.03;;;7.50;99.90;;;6.42;100.00;100017.16;5034198;28;20240;-74
2023/12/30 02:56:42;;;;;;;4.23;1.27;;;7.50;99.90;;;6.41;100.00;100031.44;5034179;28;20309;-74
2023/12/30 02:59:12;;;;;;;5.73;1.53;;;7.40;99.90;;;6.42;100.00;100030.47;5033792;28;20233;-73
2023/12/30 03:01:40;;;;;;;5.50;1.43;;;7.30;99.90;;;6.41;100.00;100035.91;5034097;28;20237;-74
2023/12/30 03:04:08;;;;;;;4.47;1.30;;;7.30;99.90;;;6.37;100.00;100035.38;5034091;28;20202;-74
2023/12/30 03:06:37;;;;;;;3.53;1.40;;;7.30;99.90;;;6.35;100.00;100047.16;5033428;28;20577;-73
2023/12/30 03:09:05;;;;;;;5.60;1.40;;;7.30;99.90;;;6.37;100.00;100046.03;5033903;28;20234;-74
2023/12/30 03:11:33;;;;;;;5.60;1.50;;;7.30;99.90;;;6.36;100.00;100049.69;5033962;28;20288;-74
2023/12/30 03:14:02;;;;;;;6.93;1.43;;;7.30;99.90;;;6.35;100.00;100058.63;5033831;28;20319;-74
2023/12/30 03:16:32;;;;;;;4.50;1.27;;;7.20;99.90;;;6.33;100.00;100055.31;5033839;28;20217;-73
2023/12/30 03:19:00;;;;;;;7.50;1.50;;;7.20;99.90;;;6.32;100.00;100053.63;5034029;28;20227;-73
2023/12/30 03:21:28;;;;;;;4.63;1.70;;;7.40;99.90;;;6.31;100.00;100057.25;5033786;28;20333;-73
2023/12/30 03:23:56;;;;;;;2.67;1.50;;;7.20;99.90;;;6.31;100.00;100057.25;5033799;28;20309;-74
2023/12/30 03:26:25;;;;;;;6.13;1.70;;;7.20;99.90;;;6.29;100.00;100069.03;5033694;28;20208;-74
2023/12/30 03:28:53;;;;;;;3.40;1.60;;;7.20;99.90;;;6.27;100.00;100058.53;5033275;28;20227;-74
2023/12/30 03:31:22;;;;;;;4.30;1.63;;;7.20;99.90;;;6.24;100.00;100063.31;5035641;28;20214;-74
2023/12/30 03:33:52;;;;;;;3.10;1.30;;;7.10;99.90;;;6.24;100.00;100066.81;5033376;28;20708;-73
2023/12/30 03:36:21;;;;;;;2.10;1.03;;;7.10;99.90;;;6.22;100.00;100066.13;5033744;28;20207;-74
2023/12/30 03:38:50;;;;;;;3.07;1.20;;;7.10;99.90;;;6.22;100.00;100062.63;5033539;28;20289;-73
2023/12/30 03:41:19;;;;;;;3.17;1.30;;;7.10;99.90;;;6.21;100.00;100067.13;5033585;28;20285;-74
2023/12/30 03:43:47;;;;;;;3.33;1.40;;;7.10;99.90;;;6.19;100.00;100073.56;5033474;28;20245;-75
2023/12/30 03:46:16;;;;;;;3.27;1.27;;;7.10;99.90;;;6.18;100.00;100086.03;5033582;28;20234;-74
2023/12/30 03:48:44;;;;;;;4.60;1.90;;;7.10;99.90;;;6.17;100.00;100084.34;5033366;28;20230;-73
2023/12/30 03:51:13;;;;;;;6.03;1.57;;;7.10;99.90;;;6.17;100.00;100076.38;5033206;28;20214;-74
2023/12/30 03:53:42;;;;;;;5.53;1.37;;;7.10;99.90;;;6.14;100.00;100084.63;5033063;28;20325;-74
2023/12/30 03:56:11;;;;;;;4.80;1.40;;;7.00;99.90;;;6.13;100.00;100101.56;5033404;28;20207;-74
2023/12/30 03:58:39;;;;;;;6.27;1.60;;;7.00;99.90;;;6.12;100.00;100102.56;5033323;28;20652;-73
2023/12/30 04:01:08;;;;;;;5.47;1.40;;;7.10;99.90;;;6.11;100.00;100100.88;5033383;28;20207;-73
2023/12/30 04:03:36;;;;;;;5.27;1.40;;;7.00;99.90;;;6.11;100.00;100106.19;5033441;28;20203;-74
2023/12/30 04:06:04;;;;;;;5.77;1.50;;;7.00;99.90;;;6.07;100.00;100096.84;5033380;28;20210;-74
2023/12/30 04:08:34;;;;;;;4.57;1.73;;;6.90;99.90;;;6.07;100.00;100107.47;5032987;28;20685;-75
2023/12/30 04:11:02;;;;;;;3.37;1.23;;;7.00;99.90;;;6.05;100.00;100109.44;5033009;28;20214;-75
2023/12/30 04:13:30;;;;;;;6.80;1.60;;;7.00;99.90;;;6.06;100.00;100095.19;5033156;28;20302;-75
2023/12/30 04:15:58;;;;;;;4.07;1.23;;;7.00;99.90;;;6.07;100.00;100107.47;5032881;28;20748;-75
2023/12/30 04:18:26;;;;;;;5.03;1.50;;;7.00;99.90;;;6.05;100.00;100098.81;5036133;28;20235;-74
2023/12/30 04:20:55;;;;;;;5.63;1.53;;;7.00;99.90;;;6.04;100.00;100113.09;5036823;28;20206;-74
2023/12/30 04:23:24;;;;;;;4.07;1.63;;;6.90;99.90;;;6.02;100.00;100109.75;5037009;28;20230;-73
2023/12/30 04:25:53;;;;;;;4.10;1.53;;;7.10;99.90;;;6.00;100.00;100109.03;5037044;28;20260;-72
2023/12/30 04:28:21;;;;;;;7.00;1.70;;;7.00;99.90;;;5.98;100.00;100108.34;5036515;28;20735;-73
2023/12/30 04:30:50;;;;;;;5.07;1.60;;;6.90;99.90;;;5.98;100.00;100114.50;5036612;28;20668;-74
2023/12/30 04:33:18;;;;;;;6.20;1.87;;;6.90;99.90;;;5.98;100.00;100109.19;5036832;28;20203;-74
2023/12/30 04:35:46;;;;;;;2.90;1.37;;;6.90;99.90;;;5.98;100.00;100108.34;5036714;28;20238;-73
2023/12/30 04:38:17;;;;;;;4.80;1.90;;;6.90;99.90;;;5.96;100.00;100110.31;5036707;28;20238;-74
2023/12/30 04:40:46;;;;;;;5.87;1.73;;;6.90;99.90;;;5.95;100.00;100108.66;5036893;28;20219;-74
2023/12/30 04:43:15;;;;;;;4.93;1.80;;;6.80;99.90;;;5.93;100.00;100115.91;5036691;28;20207;-73
2023/12/30 04:45:44;;;;;;;5.47;1.60;;;6.90;99.90;;;5.91;100.00;100109.91;5036714;28;20305;-73
2023/12/30 04:48:12;;;;;;;3.93;1.33;;;6.80;99.90;;;5.89;100.00;100114.56;5036629;28;20227;-73
2023/12/30 04:50:40;;;;;;;5.33;1.60;;;6.80;99.90;;;5.89;100.00;100119.88;5036297;28;20214;-74
2023/12/30 04:53:08;;;;;;;4.67;1.40;;;6.80;99.90;;;5.86;100.00;100122.78;5036625;28;20206;-74
2023/12/30 04:55:36;;;;;;;6.50;1.63;;;6.80;99.90;;;5.83;100.00;100125.72;5036345;28;20270;-74
2023/12/30 04:58:05;;;;;;;2.47;1.47;;;6.80;99.90;;;5.82;100.00;100132.84;5036319;28;20313;-74
2023/12/30 05:00:34;;;;;;;5.40;1.50;;;6.80;99.90;;;5.83;100.00;100128.38;5036373;28;20206;-73
2023/12/30 05:03:03;;;;;;;4.33;1.70;;;6.80;99.90;;;5.82;100.00;100134.69;5036335;28;20214;-72
2023/12/30 05:05:32;;;;;;;3.97;1.37;;;6.70;99.90;;;5.81;100.00;100144.47;5036444;28;20207;-73
2023/12/30 05:08:00;;;;;;;3.67;1.50;;;6.80;99.90;;;5.82;100.00;100154.09;5036124;28;20227;-73
2023/12/30 05:10:31;;;;;;;6.07;1.30;;;6.80;99.90;;;5.80;100.00;100157.88;5036172;28;20278;-73
2023/12/30 05:12:59;;;;;;;9.30;1.70;;;6.80;99.90;;;5.81;100.00;100155.09;5036100;28;20210;-74
2023/12/30 05:15:28;;;;;;;7.17;2.00;;;6.70;99.90;;;5.78;100.00;100154.53;5035727;28;20227;-74
2023/12/30 05:17:57;;;;;;;5.50;1.70;;;6.70;99.90;;;5.79;100.00;100159.69;5035672;28;20795;-73
2023/12/30 05:20:25;;;;;;;5.27;1.70;;;6.80;99.90;;;5.78;100.00;100165.16;5035967;28;20245;-74
2023/12/30 05:22:53;;;;;;;6.97;1.80;;;6.70;99.90;;;5.78;100.00;100155.38;5035991;28;20298;-74
2023/12/30 05:25:22;;;;;;;6.07;1.97;;;6.70;99.90;;;5.77;100.00;100161.66;5035744;28;20742;-74
2023/12/30 05:27:50;;;;;;;8.60;1.93;;;6.70;99.90;;;5.75;100.00;100160.16;5035471;28;20231;-74
2023/12/30 05:30:18;;;;;;;7.80;2.00;;;6.70;99.90;;;5.76;100.00;100164.44;5034803;28;20218;-74
2023/12/30 05:32:46;;;;;;;6.40;1.80;;;6.70;99.90;;;5.75;100.00;100160.16;5035896;28;20265;-74
2023/12/30 05:35:16;;;;;;;9.87;1.60;;;6.70;99.90;;;5.73;100.00;100162.94;5036049;28;20241;-74
2023/12/30 05:37:44;;;;;;;10.63;2.23;;;6.70;99.90;;;5.73;100.00;100178.88;5035666;28;20276;-74
2023/12/30 05:40:13;;;;;;;9.03;2.10;;;6.70;99.90;;;5.74;100.00;100171.75;5035671;28;20245;-74
2023/12/30 05:42:41;;;;;;;8.17;2.10;;;6.70;99.90;;;5.74;100.00;100183.22;5035637;28;20210;-74
2023/12/30 05:45:10;;;;;;;7.33;1.97;;;6.70;99.90;;;5.75;100.00;100182.22;5035243;28;20290;-73
2023/12/30 05:47:38;;;;;;;7.97;1.90;;;6.60;99.90;;;5.75;100.00;100181.38;5035441;28;20270;-72
2023/12/30 05:50:08;;;;;;;7.10;2.13;;;6.70;99.90;;;5.76;100.00;100183.03;5035186;28;20299;-73
2023/12/30 05:52:38;;;;;;;7.90;1.97;;;6.70;99.90;;;5.74;100.00;100183.22;5035183;28;20242;-73
2023/12/30 05:55:07;;;;;;;6.13;2.00;;;6.70;99.90;;;5.77;100.00;100168.78;5035222;28;20277;-74
2023/12/30 05:57:36;;;;;;;5.97;1.90;;;6.70;99.90;;;5.77;100.00;100200.66;5035292;28;20206;-74
2023/12/30 06:00:07;;;;;;;7.57;2.10;;;6.70;99.90;;;5.78;100.00;100186.41;5035249;28;20290;-73
2023/12/30 06:02:35;;;;;;;9.03;3.23;;;6.70;99.90;;;5.80;100.00;100205.69;5035475;28;20187;-74
2023/12/30 06:05:04;;;;;;;9.53;2.47;;;6.80;99.90;;;5.86;100.00;100190.03;5035133;28;20291;-74
2023/12/30 06:07:32;;;;;;;7.60;2.00;;;6.80;99.90;;;5.88;100.00;100197.88;5034718;28;20653;-72
2023/12/30 06:10:02;;;;;;;6.87;2.30;;;6.80;99.90;;;5.89;100.00;100202.22;5034748;28;20617;-74
2023/12/30 06:12:30;;;;;;;8.73;2.30;;;6.80;99.90;;;5.89;100.00;100211.00;5035155;28;20207;-73
2023/12/30 06:14:59;;;;;;;8.63;2.27;;;7.00;99.90;;;5.90;100.00;100211.84;5034998;28;20230;-74
2023/12/30 06:17:27;;;;;;;11.03;2.50;;;6.90;99.90;;;5.94;100.00;100213.25;5034844;28;20253;-73
2023/12/30 06:19:55;;;;;;;9.67;2.40;;;6.90;99.90;;;5.91;100.00;100219.69;5034823;28;20245;-73
2023/12/30 06:22:23;;;;;;;6.77;2.40;;;6.90;99.90;;;5.91;100.00;100218.84;5034894;28;20210;-73
2023/12/30 06:24:51;;;;;;;7.80;2.40;;;6.90;99.90;;;5.91;100.00;100210.88;5034707;28;20203;-74
2023/12/30 06:27:21;;;;;;;7.13;2.57;;;6.80;99.90;;;5.91;100.00;100219.69;5035202;28;20237;-72
2023/12/30 06:29:49;;;;;;;7.90;2.60;;;7.00;99.90;;;5.93;100.00;100232.81;5034715;28;20213;-74
2023/12/30 06:32:17;;;;;;;9.23;2.30;;;6.90;99.90;;;5.93;100.00;100238.13;5034626;28;20202;-74
2023/12/30 06:34:45;;;;;;;8.00;2.60;;;7.00;99.90;;;5.91;100.00;100229.47;5034544;28;20202;-74
2023/12/30 06:37:14;;;;;;;10.20;2.93;;;6.90;99.90;;;5.90;100.00;100244.56;5034710;28;20218;-74
2023/12/30 06:39:43;;;;;;;8.07;2.30;;;6.80;99.90;;;5.88;100.00;100245.72;5034306;28;20298;-73
2023/12/30 06:42:11;;;;;;;7.37;2.40;;;6.90;99.90;;;5.89;100.00;100237.56;5033742;28;20238;-73
2023/12/30 06:44:41;;;;;;;8.83;2.63;;;6.80;99.90;;;5.87;100.00;100244.03;5034564;28;20207;-74
2023/12/30 06:47:10;;;;;;;11.30;2.53;;;6.80;99.90;;;5.85;100.00;100267.22;5034468;28;20210;-74
2023/12/30 06:49:40;;;;;;;8.17;2.50;;;6.80;99.90;;;5.85;100.00;100256.59;5034151;28;20269;-74
2023/12/30 06:52:08;;;;;;;10.27;2.53;;;6.80;99.90;;;5.84;100.00;100266.38;5034395;28;20241;-74
2023/12/30 06:54:36;;;;;;;10.43;2.27;;;6.80;99.90;;;5.83;100.00;100266.50;5034212;28;20214;-74
2023/12/30 06:57:05;;;;;;;9.00;2.50;;;6.80;99.90;;;5.83;100.00;100263.84;5033871;28;20779;-74
2023/12/30 06:59:34;;;;;;;12.27;2.83;;;6.70;99.90;;;5.81;100.00;100261.34;5034042;28;20660;-73
2023/12/30 07:02:04;;;;;;;13.33;2.53;;;6.80;99.90;;;5.80;100.00;100274.75;5034084;28;20665;-70
2023/12/30 07:04:32;;;;;;;6.13;2.57;;;6.80;99.90;;;5.82;100.00;100268.31;5034150;28;20238;-70
2023/12/30 07:07:01;;;;;;;9.63;2.67;;;6.80;99.90;;;5.82;100.00;100268.31;5034020;28;20261;-70
2023/12/30 07:09:29;;;;;;;7.53;2.33;;;6.90;99.90;;;5.81;100.00;100271.97;5034023;28;20254;-70
2023/12/30 07:11:57;;;;;;;7.00;2.77;;;6.80;99.90;;;5.79;100.00;100276.56;5034111;28;20206;-70
2023/12/30 07:14:25;;;;;;;7.83;2.20;;;6.80;99.90;;;5.80;100.00;100288.03;5033957;28;20202;-70
2023/12/30 07:16:53;;;;;;;8.97;2.93;;;6.80;99.90;;;5.80;100.00;100285.38;5033928;28;20658;-70
2023/12/30 07:19:22;;;;;;;12.47;2.43;;;6.80;99.90;;;5.80;100.00;100285.38;5033818;28;20236;-70
2023/12/30 07:21:51;;;;;;;8.57;2.20;;;6.70;99.90;;;5.81;100.00;100295.03;5033542;28;20293;-70
2023/12/30 07:24:19;;;;;;;8.43;3.17;;;6.80;99.90;;;5.80;100.00;100293.34;5033850;28;20214;-70
2023/12/30 07:26:48;;;;;;;11.63;3.13;;;6.80;99.90;;;5.79;100.00;100292.50;5033796;28;20235;-70
2023/12/30 07:29:16;;;;;;;6.43;2.27;;;6.80;99.90;;;5.79;100.00;100289.03;5033675;28;20318;-70
2023/12/30 07:31:44;;;;;;;9.03;2.60;;;6.70;99.90;;;5.81;100.00;100303.84;5033704;28;20211;-70
2023/12/30 07:34:12;;;;;;;10.73;2.73;;;6.80;99.90;;;5.78;100.00;100297.97;5033665;28;20203;-70
2023/12/30 07:36:42;;;;;;;11.27;2.50;;;6.80;99.90;;;5.78;100.00;100293.50;5033614;28;20231;-70
2023/12/30 07:39:10;;;;;;;9.90;2.73;;;6.90;99.90;;;5.81;100.00;100297.69;5033472;28;20231;-70
2023/12/30 07:41:38;;;;;;;5.40;2.53;;;6.80;99.90;;;5.80;100.00;100296.00;5033530;28;20289;-70
2023/12/30 07:44:06;;;;;;;6.60;2.40;;;6.80;99.90;;;5.78;100.00;100297.97;5033615;28;20256;-70
2023/12/30 07:46:35;;;;;;;9.50;2.53;;;6.70;99.90;;;5.76;100.00;100300.75;5033428;28;20226;-70
2023/12/30 07:49:03;;;;;;;8.70;2.47;;;6.70;99.90;;;5.75;100.00;100299.09;5033417;28;20317;-70
2023/12/30 07:51:31;;;;;;;8.50;2.43;;;6.80;99.90;;;5.76;100.00;100298.09;5033225;28;20219;-70
2023/12/30 07:54:01;;;;;;;6.63;2.33;;;6.70;99.90;;;5.80;100.00;100298.66;5037698;28;20297;-70
2023/12/30 07:56:29;;;;;;;9.27;2.70;;;6.80;99.90;;;5.79;100.00;100311.09;5037558;28;20231;-70
2023/12/30 07:58:57;;;;;;;13.73;2.93;;;6.80;99.90;;;5.81;100.00;100313.63;5037404;28;20313;-70
2023/12/30 08:01:25;;;;;;;7.33;2.37;;;6.80;99.90;;;5.84;100.00;100316.84;5037226;28;20238;-70
2023/12/30 08:03:54;;;;;;;9.10;2.73;;;6.90;99.90;;;5.88;100.00;100320.09;5037434;28;20215;-70
2023/12/30 08:06:22;;;;;;;11.77;2.90;;;6.80;99.90;;;5.90;100.00;100321.63;5037466;28;20253;-70
2023/12/30 08:08:50;;;;;;;9.50;2.60;;;6.80;99.90;;;5.89;100.00;100337.72;5037262;28;20322;-70
2023/12/30 08:11:20;;;;;;;11.70;2.53;;;6.80;99.90;;;5.93;100.00;100339.09;5037371;28;20203;-70
2023/12/30 08:13:48;;;;;;;14.70;2.73;;;7.10;99.90;;;5.94;100.00;100330.16;5037264;28;20214;-70
2023/12/30 08:16:16;;;;;;;11.43;2.97;;;6.90;99.90;;;5.95;100.00;100326.53;5037111;28;20231;-70
2023/12/30 08:18:44;;;;;;;8.47;2.50;;;6.90;99.90;;;5.93;100.00;100326.66;5037115;28;20230;-70
2023/12/30 08:21:13;;;;;;;7.87;2.80;;;6.90;99.90;;;5.96;100.00;100334.34;5036792;28;20694;-70
2023/12/30 08:23:41;;;;;;;9.30;2.80;;;6.90;99.90;;;5.95;100.00;100330.03;5037114;28;20242;-70
2023/12/30 08:26:09;;;;;;;9.97;3.07;;;6.90;99.90;;;5.98;100.00;100342.19;5037007;28;20203;-70
2023/12/30 08:28:39;;;;;;;8.27;3.10;;;7.00;99.90;;;5.96;100.00;100349.44;5036925;28;20231;-70
2023/12/30 08:31:07;;;;;;;9.37;2.80;;;6.90;99.90;;;5.98;100.00;100344.84;5036592;28;20655;-70
2023/12/30 08:33:35;;;;;;;9.17;2.90;;;7.00;99.90;;;5.96;100.00;100341.47;5036635;28;20256;-70
2023/12/30 08:36:04;;;;;;;8.63;2.93;;;6.90;99.90;;;5.96;100.00;100349.44;5036695;28;20226;-70
2023/12/30 08:38:32;;;;;;;10.57;3.67;;;6.90;99.90;;;5.97;100.00;100341.34;5036634;28;20226;-70
2023/12/30 08:41:01;;;;;;;10.57;3.47;;;7.00;99.90;;;6.00;100.00;100353.50;5036720;28;20310;-70
2023/12/30 08:43:29;;;;;;;11.10;3.13;;;7.00;99.90;;;6.00;100.00;100349.03;5036667;28;20207;-70
2023/12/30 08:45:59;;;;;;;12.60;3.00;;;7.10;99.90;;;6.00;100.00;100361.47;5036663;28;20290;-70
2023/12/30 08:48:27;;;;;;;10.67;3.07;;;7.00;99.90;;;6.06;100.00;100355.63;5036539;28;20233;-70
2023/12/30 08:50:55;;;;;;;12.97;2.97;;;7.10;99.90;;;6.10;100.00;100351.66;5036169;28;20593;-70
2023/12/30 08:53:24;;;;;;;8.83;2.67;;;7.00;99.90;;;6.09;100.00;100360.66;5036224;28;20683;-70
2023/12/30 08:55:54;;;;;;;10.33;3.00;;;7.00;99.90;;;6.10;100.00;100356.97;5036271;28;20206;-70
2023/12/30 08:58:23;;;;;;;9.57;2.77;;;7.10;99.90;;;6.11;100.00;100356.84;5036328;28;20231;-70
2023/12/30 09:00:53;;;;;;;11.23;3.67;;;7.10;99.90;;;6.13;100.00;100359.34;5036157;28;20207;-70
2023/12/30 09:03:23;;;;;;;6.73;2.30;;;7.10;99.90;;;6.13;100.00;100377.97;5035299;28;20214;-70
2023/12/30 09:05:51;;;;;;;12.33;3.27;;;7.20;99.90;;;6.16;100.00;100372.41;5036265;28;20206;-70
2023/12/30 09:08:19;;;;;;;6.87;3.03;;;7.20;99.90;;;6.19;100.00;100387.22;5036253;28;20630;-70
2023/12/30 09:10:48;;;;;;;12.67;3.30;;;7.20;99.90;;;6.22;100.00;100384.28;5036314;28;20202;-70
2023/12/30 09:13:16;;;;;;;7.63;2.63;;;7.30;99.90;;;6.24;100.00;100388.47;5036213;28;20206;-70
2023/12/30 09:15:44;;;;;;;8.97;3.37;;;7.20;99.90;;;6.28;100.00;100394.31;5035749;28;20571;-70
2023/12/30 09:18:13;;;;;;;9.77;3.07;;;7.30;99.90;;;6.32;100.00;100401.06;5035521;28;20262;-70
2023/12/30 09:20:44;;;;;;;9.53;2.97;;;7.40;99.90;;;6.33;100.00;100398.25;5035987;28;20290;-70
2023/12/30 09:23:12;;;;;;;6.73;2.47;;;7.50;99.90;;;6.36;100.00;100405.94;5035927;28;20210;-70
2023/12/30 09:25:40;;;;;;;8.37;2.70;;;7.30;99.90;;;6.38;100.00;100411.94;5035887;28;20301;-70
2023/12/30 09:28:09;;;;;;;11.77;3.37;;;7.40;99.90;;;6.42;100.00;100413.34;5035533;28;20705;-70
2023/12/30 09:30:37;;;;;;;9.43;2.70;;;7.40;99.90;;;6.42;100.00;100413.34;5035597;28;20715;-70
2023/12/30 09:33:05;;;;;;;9.77;2.63;;;7.50;99.90;;;6.48;100.00;100428.75;5035529;28;20677;-70
2023/12/30 09:35:38;;;;;;;8.00;2.87;;;7.50;99.90;;;6.45;100.00;100414.88;5035798;28;20196;-70
2023/12/30 09:38:07;;;;;;;8.17;2.80;;;7.40;99.90;;;6.49;100.00;100443.72;5035538;28;20241;-70
2023/12/30 09:40:36;;;;;;;8.93;2.90;;;7.50;99.90;;;6.49;100.00;100435.75;5035644;28;20211;-70
2023/12/30 09:43:06;;;;;;;7.97;2.70;;;7.50;99.90;;;6.49;100.00;100430.44;5035399;28;20707;-70
2023/12/30 09:45:38;;;;;;;9.47;2.90;;;7.50;99.90;;;6.51;100.00;100436.44;5035543;28;20244;-70
2023/12/30 09:48:10;;;;;;;8.50;3.03;;;7.50;99.90;;;6.53;100.00;100438.97;5035244;28;20222;-70
2023/12/30 09:50:39;;;;;;;8.67;2.80;;;7.50;99.90;;;6.53;100.00;100445.13;5035240;28;20211;-70
2023/12/30 09:53:08;;;;;;;13.03;3.17;;;7.50;99.90;;;6.55;100.00;100443.16;5035216;28;20302;-70
2023/12/30 09:55:36;;;;;;;11.63;2.53;;;7.50;99.90;;;6.59;100.00;100452.53;5035285;28;20206;-70
2023/12/30 09:58:05;;;;;;;11.90;3.00;;;7.50;99.90;;;6.61;100.00;100463.84;5035237;28;20272;-70
2023/12/30 10:00:41;;;;;;;7.60;2.27;;;7.50;99.90;;;6.62;100.00;100454.91;5034864;28;20707;-70
2023/12/30 10:03:09;;;;;;;5.60;2.20;;;7.60;99.90;;;6.64;100.00;100458.25;5034922;28;20640;-70
2023/12/30 10:05:37;;;;;;;10.90;2.97;;;7.60;99.90;;;6.66;100.00;100459.94;5035243;28;20299;-70
2023/12/30 10:08:08;;;;;;;10.47;2.83;;;7.60;99.90;;;6.66;100.00;100452.78;5035028;28;20222;-70
2023/12/30 10:10:43;;;;;;;11.53;3.20;;;7.60;99.90;;;6.65;100.00;100448.44;5034905;28;20286;-70
2023/12/30 10:13:12;;;;;;;7.90;2.60;;;7.60;99.90;;;6.67;100.00;100450.97;5035092;28;20214;-73
2023/12/30 10:15:42;;;;;;;8.17;2.67;;;7.70;99.90;;;6.66;100.00;100455.47;5035432;28;20264;-74
2023/12/30 10:18:12;;;;;;;8.60;2.67;;;7.60;99.90;;;6.66;100.00;100466.09;5034798;28;20226;-74
2023/12/30 10:20:43;;;;;;;8.13;2.63;;;7.70;99.90;;;6.72;100.00;100464.69;5034845;28;20298;-75
2023/12/30 10:23:13;;;;;;;7.40;2.70;;;7.60;99.90;;;6.72;100.00;100467.34;5034606;28;20735;-75
2023/12/30 10:25:41;;;;;;;8.50;2.80;;;7.70;99.90;;;6.73;100.00;100461.03;5034746;28;20297;-74